sensor_id;sensor_type;location;lat;lon;timestamp;P1;durP1;ratioP1;P2;durP2;ratioP2
37857;SDS011;23695;55.868;37.472;2022-12-07T00:01:17;4.35;;;1.85;;
37857;SDS011;23695;55.868;37.472;2022-12-07T00:03:49;3.20;;;1.70;;
37857;SDS011;23695;55.868;37.472;2022-12-07T00:06:18;4.22;;;1.80;;
37857;SDS011;23695;55.868;37.472;2022-12-07T00:08:46;3.95;;;2.40;;
37857;SDS011;23695;55.868;37.472;2022-12-07T00:11:15;3.45;;;1.67;;
37857;SDS011;23695;55.868;37.472;2022-12-07T00:13:43;3.03;;;1.93;;
37857;SDS011;23695;55.868;37.472;2022-12-07T00:16:15;3.88;;;2.20;;
37857;SDS011;23695;55.868;37.472;2022-12-07T00:18:44;4.38;;;1.50;;
37857;SDS011;23695;55.868;37.472;2022-12-07T00:21:12;2.33;;;1.65;;
37857;SDS011;23695;55.868;37.472;2022-12-07T00:23:41;2.47;;;1.77;;
37857;SDS011;23695;55.868;37.472;2022-12-07T00:26:10;4.53;;;2.08;;
37857;SDS011;23695;55.868;37.472;2022-12-07T00:28:44;4.28;;;1.85;;
37857;SDS011;23695;55.868;37.472;2022-12-07T00:31:13;2.75;;;2.00;;
37857;SDS011;23695;55.868;37.472;2022-12-07T00:33:41;3.30;;;1.70;;
37857;SDS011;23695;55.868;37.472;2022-12-07T00:36:09;4.13;;;2.45;;
37857;SDS011;23695;55.868;37.472;2022-12-07T00:38:38;2.70;;;2.08;;
37857;SDS011;23695;55.868;37.472;2022-12-07T00:41:16;5.65;;;2.00;;
37857;SDS011;23695;55.868;37.472;2022-12-07T00:43:45;3.05;;;1.80;;
37857;SDS011;23695;55.868;37.472;2022-12-07T00:46:13;5.75;;;1.98;;
37857;SDS011;23695;55.868;37.472;2022-12-07T00:48:41;3.03;;;1.88;;
37857;SDS011;23695;55.868;37.472;2022-12-07T00:51:08;2.97;;;1.83;;
37857;SDS011;23695;55.868;37.472;2022-12-07T00:53:37;2.75;;;1.88;;
37857;SDS011;23695;55.868;37.472;2022-12-07T00:56:07;6.07;;;1.98;;
37857;SDS011;23695;55.868;37.472;2022-12-07T00:58:36;2.28;;;1.85;;
37857;SDS011;23695;55.868;37.472;2022-12-07T01:01:03;2.97;;;1.90;;
37857;SDS011;23695;55.868;37.472;2022-12-07T01:03:31;2.40;;;1.92;;
37857;SDS011;23695;55.868;37.472;2022-12-07T01:05:59;2.33;;;1.80;;
37857;SDS011;23695;55.868;37.472;2022-12-07T01:08:26;4.38;;;2.22;;
37857;SDS011;23695;55.868;37.472;2022-12-07T01:11:12;3.58;;;1.63;;
37857;SDS011;23695;55.868;37.472;2022-12-07T01:13:41;3.63;;;2.17;;
37857;SDS011;23695;55.868;37.472;2022-12-07T01:16:10;4.47;;;2.00;;
37857;SDS011;23695;55.868;37.472;2022-12-07T01:18:39;7.30;;;2.10;;
37857;SDS011;23695;55.868;37.472;2022-12-07T01:21:11;5.70;;;2.00;;
37857;SDS011;23695;55.868;37.472;2022-12-07T01:23:39;5.35;;;1.88;;
37857;SDS011;23695;55.868;37.472;2022-12-07T01:26:09;4.20;;;1.92;;
37857;SDS011;23695;55.868;37.472;2022-12-07T01:28:37;5.70;;;2.50;;
37857;SDS011;23695;55.868;37.472;2022-12-07T01:31:09;4.72;;;2.08;;
37857;SDS011;23695;55.868;37.472;2022-12-07T01:33:38;3.28;;;2.08;;
37857;SDS011;23695;55.868;37.472;2022-12-07T01:36:48;4.13;;;2.22;;
37857;SDS011;23695;55.868;37.472;2022-12-07T01:38:57;3.78;;;1.80;;
37857;SDS011;23695;55.868;37.472;2022-12-07T01:41:27;2.72;;;1.77;;
37857;SDS011;23695;55.868;37.472;2022-12-07T01:46:53;3.35;;;1.95;;
37857;SDS011;23695;55.868;37.472;2022-12-07T01:51:48;3.85;;;2.45;;
37857;SDS011;23695;55.868;37.472;2022-12-07T01:54:17;3.67;;;2.03;;
37857;SDS011;23695;55.868;37.472;2022-12-07T01:56:50;3.00;;;2.05;;
37857;SDS011;23695;55.868;37.472;2022-12-07T01:59:20;5.00;;;2.45;;
37857;SDS011;23695;55.868;37.472;2022-12-07T02:01:49;3.92;;;2.20;;
37857;SDS011;23695;55.868;37.472;2022-12-07T02:04:17;4.57;;;1.95;;
37857;SDS011;23695;55.868;37.472;2022-12-07T02:06:44;3.97;;;2.08;;
37857;SDS011;23695;55.868;37.472;2022-12-07T02:09:13;3.17;;;2.08;;
37857;SDS011;23695;55.868;37.472;2022-12-07T02:11:40;3.38;;;1.95;;
37857;SDS011;23695;55.868;37.472;2022-12-07T02:14:07;4.05;;;2.35;;
37857;SDS011;23695;55.868;37.472;2022-12-07T02:30:22;2.90;;;2.30;;
37857;SDS011;23695;55.868;37.472;2022-12-07T02:33:08;4.03;;;2.20;;
37857;SDS011;23695;55.868;37.472;2022-12-07T02:38:29;2.58;;;2.00;;
37857;SDS011;23695;55.868;37.472;2022-12-07T02:41:04;2.92;;;2.10;;
37857;SDS011;23695;55.868;37.472;2022-12-07T02:43:39;3.40;;;1.80;;
37857;SDS011;23695;55.868;37.472;2022-12-07T02:46:18;2.78;;;1.85;;
37857;SDS011;23695;55.868;37.472;2022-12-07T02:48:49;3.80;;;2.20;;
37857;SDS011;23695;55.868;37.472;2022-12-07T02:51:18;2.78;;;2.20;;
37857;SDS011;23695;55.868;37.472;2022-12-07T02:53:45;2.85;;;2.20;;
37857;SDS011;23695;55.868;37.472;2022-12-07T03:13:50;3.17;;;2.15;;
37857;SDS011;23695;55.868;37.472;2022-12-07T03:16:46;3.67;;;2.40;;
37857;SDS011;23695;55.868;37.472;2022-12-07T03:19:36;3.38;;;2.25;;
37857;SDS011;23695;55.868;37.472;2022-12-07T03:22:05;3.20;;;2.33;;
37857;SDS011;23695;55.868;37.472;2022-12-07T03:24:45;3.05;;;2.10;;
37857;SDS011;23695;55.868;37.472;2022-12-07T03:27:18;4.25;;;2.20;;
37857;SDS011;23695;55.868;37.472;2022-12-07T03:32:49;2.95;;;2.15;;
37857;SDS011;23695;55.868;37.472;2022-12-07T03:35:43;3.65;;;2.05;;
37857;SDS011;23695;55.868;37.472;2022-12-07T03:40:54;3.90;;;2.20;;
37857;SDS011;23695;55.868;37.472;2022-12-07T03:43:28;11.85;;;2.47;;
37857;SDS011;23695;55.868;37.472;2022-12-07T03:48:59;3.75;;;2.40;;
37857;SDS011;23695;55.868;37.472;2022-12-07T03:54:34;6.28;;;2.08;;
37857;SDS011;23695;55.868;37.472;2022-12-07T03:57:13;2.65;;;1.85;;
37857;SDS011;23695;55.868;37.472;2022-12-07T03:59:42;5.20;;;2.70;;
37857;SDS011;23695;55.868;37.472;2022-12-07T04:02:10;5.28;;;2.17;;
37857;SDS011;23695;55.868;37.472;2022-12-07T04:04:40;3.08;;;1.92;;
37857;SDS011;23695;55.868;37.472;2022-12-07T04:07:09;3.10;;;2.35;;
37857;SDS011;23695;55.868;37.472;2022-12-07T04:09:37;3.20;;;2.08;;
37857;SDS011;23695;55.868;37.472;2022-12-07T04:12:05;3.28;;;2.20;;
37857;SDS011;23695;55.868;37.472;2022-12-07T04:14:32;6.25;;;2.50;;
37857;SDS011;23695;55.868;37.472;2022-12-07T04:17:00;3.15;;;1.80;;
37857;SDS011;23695;55.868;37.472;2022-12-07T04:19:29;2.50;;;1.95;;
37857;SDS011;23695;55.868;37.472;2022-12-07T04:21:59;5.78;;;2.22;;
37857;SDS011;23695;55.868;37.472;2022-12-07T04:24:27;4.80;;;2.28;;
37857;SDS011;23695;55.868;37.472;2022-12-07T04:26:55;5.15;;;2.13;;
37857;SDS011;23695;55.868;37.472;2022-12-07T04:29:21;14.90;;;2.20;;
37857;SDS011;23695;55.868;37.472;2022-12-07T04:31:49;13.82;;;2.28;;
37857;SDS011;23695;55.868;37.472;2022-12-07T04:34:16;6.43;;;1.83;;
37857;SDS011;23695;55.868;37.472;2022-12-07T04:36:44;7.18;;;2.38;;
37857;SDS011;23695;55.868;37.472;2022-12-07T04:39:18;6.05;;;2.10;;
37857;SDS011;23695;55.868;37.472;2022-12-07T04:41:45;4.57;;;2.40;;
37857;SDS011;23695;55.868;37.472;2022-12-07T04:44:12;5.80;;;2.30;;
37857;SDS011;23695;55.868;37.472;2022-12-07T04:46:39;8.82;;;2.53;;
37857;SDS011;23695;55.868;37.472;2022-12-07T04:49:07;3.35;;;2.20;;
37857;SDS011;23695;55.868;37.472;2022-12-07T04:51:34;3.05;;;2.05;;
37857;SDS011;23695;55.868;37.472;2022-12-07T04:54:01;5.07;;;2.25;;
37857;SDS011;23695;55.868;37.472;2022-12-07T04:56:27;5.90;;;2.40;;
37857;SDS011;23695;55.868;37.472;2022-12-07T04:58:54;6.25;;;2.88;;
37857;SDS011;23695;55.868;37.472;2022-12-07T05:01:22;4.45;;;2.63;;
37857;SDS011;23695;55.868;37.472;2022-12-07T05:03:50;4.45;;;2.20;;
37857;SDS011;23695;55.868;37.472;2022-12-07T05:06:17;4.28;;;2.72;;
37857;SDS011;23695;55.868;37.472;2022-12-07T05:08:43;4.35;;;2.33;;
37857;SDS011;23695;55.868;37.472;2022-12-07T05:11:10;6.18;;;2.85;;
37857;SDS011;23695;55.868;37.472;2022-12-07T05:13:38;5.22;;;2.60;;
37857;SDS011;23695;55.868;37.472;2022-12-07T05:16:05;4.78;;;2.97;;
37857;SDS011;23695;55.868;37.472;2022-12-07T05:18:32;5.20;;;2.63;;
37857;SDS011;23695;55.868;37.472;2022-12-07T05:20:59;4.35;;;3.00;;
37857;SDS011;23695;55.868;37.472;2022-12-07T05:23:26;4.20;;;2.80;;
37857;SDS011;23695;55.868;37.472;2022-12-07T05:25:52;5.28;;;2.55;;
37857;SDS011;23695;55.868;37.472;2022-12-07T05:28:19;4.93;;;2.92;;
37857;SDS011;23695;55.868;37.472;2022-12-07T05:30:46;4.53;;;2.85;;
37857;SDS011;23695;55.868;37.472;2022-12-07T05:33:12;4.63;;;2.95;;
37857;SDS011;23695;55.868;37.472;2022-12-07T05:35:39;4.20;;;2.58;;
37857;SDS011;23695;55.868;37.472;2022-12-07T05:38:06;4.32;;;2.92;;
37857;SDS011;23695;55.868;37.472;2022-12-07T05:40:32;4.63;;;3.08;;
37857;SDS011;23695;55.868;37.472;2022-12-07T05:42:59;4.75;;;3.33;;
37857;SDS011;23695;55.868;37.472;2022-12-07T05:45:30;5.93;;;2.92;;
37857;SDS011;23695;55.868;37.472;2022-12-07T05:47:57;4.65;;;3.13;;
37857;SDS011;23695;55.868;37.472;2022-12-07T05:50:24;5.97;;;2.80;;
37857;SDS011;23695;55.868;37.472;2022-12-07T05:52:51;4.88;;;3.10;;
37857;SDS011;23695;55.868;37.472;2022-12-07T05:55:17;4.35;;;2.90;;
37857;SDS011;23695;55.868;37.472;2022-12-07T05:57:44;5.22;;;3.17;;
37857;SDS011;23695;55.868;37.472;2022-12-07T06:00:11;4.22;;;3.05;;
37857;SDS011;23695;55.868;37.472;2022-12-07T06:02:38;5.30;;;3.13;;
37857;SDS011;23695;55.868;37.472;2022-12-07T06:05:05;5.28;;;3.05;;
37857;SDS011;23695;55.868;37.472;2022-12-07T06:07:32;4.15;;;3.03;;
37857;SDS011;23695;55.868;37.472;2022-12-07T06:09:59;4.55;;;2.90;;
37857;SDS011;23695;55.868;37.472;2022-12-07T06:12:26;5.47;;;3.45;;
37857;SDS011;23695;55.868;37.472;2022-12-07T06:14:53;5.05;;;2.85;;
37857;SDS011;23695;55.868;37.472;2022-12-07T06:17:20;3.63;;;2.83;;
37857;SDS011;23695;55.868;37.472;2022-12-07T06:19:46;7.82;;;3.20;;
37857;SDS011;23695;55.868;37.472;2022-12-07T06:22:13;6.70;;;3.13;;
37857;SDS011;23695;55.868;37.472;2022-12-07T06:24:40;4.22;;;3.05;;
37857;SDS011;23695;55.868;37.472;2022-12-07T06:27:07;5.20;;;3.30;;
37857;SDS011;23695;55.868;37.472;2022-12-07T06:29:34;6.10;;;3.10;;
37857;SDS011;23695;55.868;37.472;2022-12-07T06:32:01;3.53;;;2.72;;
37857;SDS011;23695;55.868;37.472;2022-12-07T06:34:27;4.63;;;3.13;;
37857;SDS011;23695;55.868;37.472;2022-12-07T06:36:54;5.32;;;3.38;;
37857;SDS011;23695;55.868;37.472;2022-12-07T06:39:22;5.07;;;3.45;;
37857;SDS011;23695;55.868;37.472;2022-12-07T06:41:53;6.55;;;3.42;;
37857;SDS011;23695;55.868;37.472;2022-12-07T06:44:20;4.78;;;2.97;;
37857;SDS011;23695;55.868;37.472;2022-12-07T06:46:48;5.47;;;3.30;;
37857;SDS011;23695;55.868;37.472;2022-12-07T06:49:16;8.15;;;3.90;;
37857;SDS011;23695;55.868;37.472;2022-12-07T06:51:43;5.72;;;3.42;;
37857;SDS011;23695;55.868;37.472;2022-12-07T06:54:10;5.07;;;3.30;;
37857;SDS011;23695;55.868;37.472;2022-12-07T06:56:38;4.65;;;3.38;;
37857;SDS011;23695;55.868;37.472;2022-12-07T06:59:07;6.55;;;3.70;;
37857;SDS011;23695;55.868;37.472;2022-12-07T07:01:34;5.57;;;3.45;;
37857;SDS011;23695;55.868;37.472;2022-12-07T07:04:02;5.07;;;3.85;;
37857;SDS011;23695;55.868;37.472;2022-12-07T07:06:29;6.20;;;3.38;;
37857;SDS011;23695;55.868;37.472;2022-12-07T07:08:56;6.10;;;3.60;;
37857;SDS011;23695;55.868;37.472;2022-12-07T07:11:22;6.60;;;3.65;;
37857;SDS011;23695;55.868;37.472;2022-12-07T07:13:49;6.25;;;3.60;;
37857;SDS011;23695;55.868;37.472;2022-12-07T07:16:16;6.15;;;3.60;;
37857;SDS011;23695;55.868;37.472;2022-12-07T07:18:43;10.20;;;3.67;;
37857;SDS011;23695;55.868;37.472;2022-12-07T07:21:09;5.80;;;3.90;;
37857;SDS011;23695;55.868;37.472;2022-12-07T07:23:36;8.40;;;4.07;;
37857;SDS011;23695;55.868;37.472;2022-12-07T07:26:03;6.63;;;4.00;;
37857;SDS011;23695;55.868;37.472;2022-12-07T07:28:30;8.32;;;4.13;;
37857;SDS011;23695;55.868;37.472;2022-12-07T07:30:56;6.22;;;3.58;;
37857;SDS011;23695;55.868;37.472;2022-12-07T07:33:23;7.10;;;4.10;;
37857;SDS011;23695;55.868;37.472;2022-12-07T07:35:50;8.13;;;4.53;;
37857;SDS011;23695;55.868;37.472;2022-12-07T07:38:16;5.55;;;3.70;;
37857;SDS011;23695;55.868;37.472;2022-12-07T07:40:43;7.63;;;4.05;;
37857;SDS011;23695;55.868;37.472;2022-12-07T07:43:10;6.20;;;4.05;;
37857;SDS011;23695;55.868;37.472;2022-12-07T07:45:37;10.85;;;4.60;;
37857;SDS011;23695;55.868;37.472;2022-12-07T07:48:04;7.32;;;4.60;;
37857;SDS011;23695;55.868;37.472;2022-12-07T07:50:31;7.82;;;4.32;;
37857;SDS011;23695;55.868;37.472;2022-12-07T07:52:57;7.70;;;4.63;;
37857;SDS011;23695;55.868;37.472;2022-12-07T07:55:24;7.80;;;3.92;;
37857;SDS011;23695;55.868;37.472;2022-12-07T07:57:51;7.40;;;4.50;;
37857;SDS011;23695;55.868;37.472;2022-12-07T08:00:20;6.82;;;4.15;;
37857;SDS011;23695;55.868;37.472;2022-12-07T08:02:47;8.35;;;4.47;;
37857;SDS011;23695;55.868;37.472;2022-12-07T08:05:14;7.20;;;4.72;;
37857;SDS011;23695;55.868;37.472;2022-12-07T08:07:41;8.07;;;4.32;;
37857;SDS011;23695;55.868;37.472;2022-12-07T08:10:09;6.60;;;4.40;;
37857;SDS011;23695;55.868;37.472;2022-12-07T08:12:38;7.20;;;4.43;;
37857;SDS011;23695;55.868;37.472;2022-12-07T08:15:06;7.35;;;3.90;;
37857;SDS011;23695;55.868;37.472;2022-12-07T08:17:33;6.72;;;4.45;;
37857;SDS011;23695;55.868;37.472;2022-12-07T08:19:59;5.60;;;3.92;;
37857;SDS011;23695;55.868;37.472;2022-12-07T08:22:26;6.18;;;3.78;;
37857;SDS011;23695;55.868;37.472;2022-12-07T08:24:53;5.85;;;4.00;;
37857;SDS011;23695;55.868;37.472;2022-12-07T08:27:20;6.68;;;4.03;;
37857;SDS011;23695;55.868;37.472;2022-12-07T08:29:46;7.53;;;4.32;;
37857;SDS011;23695;55.868;37.472;2022-12-07T08:32:13;6.75;;;4.47;;
37857;SDS011;23695;55.868;37.472;2022-12-07T08:34:40;7.10;;;4.05;;
37857;SDS011;23695;55.868;37.472;2022-12-07T08:37:07;5.78;;;3.83;;
37857;SDS011;23695;55.868;37.472;2022-12-07T08:39:33;7.63;;;3.88;;
37857;SDS011;23695;55.868;37.472;2022-12-07T08:42:00;6.82;;;4.28;;
37857;SDS011;23695;55.868;37.472;2022-12-07T08:44:27;7.55;;;4.25;;
37857;SDS011;23695;55.868;37.472;2022-12-07T08:46:55;8.65;;;4.40;;
37857;SDS011;23695;55.868;37.472;2022-12-07T08:49:30;7.13;;;3.92;;
37857;SDS011;23695;55.868;37.472;2022-12-07T08:54:33;10.57;;;4.28;;
37857;SDS011;23695;55.868;37.472;2022-12-07T08:57:02;7.82;;;4.13;;
37857;SDS011;23695;55.868;37.472;2022-12-07T08:59:30;9.90;;;4.25;;
37857;SDS011;23695;55.868;37.472;2022-12-07T09:01:59;9.70;;;4.78;;
37857;SDS011;23695;55.868;37.472;2022-12-07T09:04:26;6.57;;;4.45;;
37857;SDS011;23695;55.868;37.472;2022-12-07T09:06:53;6.93;;;4.40;;
37857;SDS011;23695;55.868;37.472;2022-12-07T09:09:21;11.95;;;4.40;;
37857;SDS011;23695;55.868;37.472;2022-12-07T09:11:47;10.10;;;4.13;;
37857;SDS011;23695;55.868;37.472;2022-12-07T09:14:14;7.38;;;4.30;;
37857;SDS011;23695;55.868;37.472;2022-12-07T09:16:41;7.30;;;4.53;;
37857;SDS011;23695;55.868;37.472;2022-12-07T09:19:07;5.97;;;4.13;;
37857;SDS011;23695;55.868;37.472;2022-12-07T09:21:34;8.43;;;4.20;;
37857;SDS011;23695;55.868;37.472;2022-12-07T09:24:01;7.80;;;4.60;;
37857;SDS011;23695;55.868;37.472;2022-12-07T09:26:28;5.82;;;3.72;;
37857;SDS011;23695;55.868;37.472;2022-12-07T09:28:54;10.98;;;4.65;;
37857;SDS011;23695;55.868;37.472;2022-12-07T09:31:21;6.95;;;4.07;;
37857;SDS011;23695;55.868;37.472;2022-12-07T09:33:57;9.73;;;4.40;;
37857;SDS011;23695;55.868;37.472;2022-12-07T09:36:26;9.48;;;4.40;;
37857;SDS011;23695;55.868;37.472;2022-12-07T09:38:53;6.05;;;4.10;;
37857;SDS011;23695;55.868;37.472;2022-12-07T09:41:20;7.55;;;4.85;;
37857;SDS011;23695;55.868;37.472;2022-12-07T09:43:50;5.93;;;4.15;;
37857;SDS011;23695;55.868;37.472;2022-12-07T09:46:17;6.40;;;4.50;;
37857;SDS011;23695;55.868;37.472;2022-12-07T09:48:46;7.68;;;4.80;;
37857;SDS011;23695;55.868;37.472;2022-12-07T09:51:22;6.80;;;4.10;;
37857;SDS011;23695;55.868;37.472;2022-12-07T09:53:52;8.57;;;4.82;;
37857;SDS011;23695;55.868;37.472;2022-12-07T09:56:20;7.40;;;4.38;;
37857;SDS011;23695;55.868;37.472;2022-12-07T09:58:49;7.88;;;4.40;;
37857;SDS011;23695;55.868;37.472;2022-12-07T10:01:19;5.95;;;4.20;;
37857;SDS011;23695;55.868;37.472;2022-12-07T10:06:37;8.98;;;4.15;;
37857;SDS011;23695;55.868;37.472;2022-12-07T10:09:14;6.10;;;4.30;;
37857;SDS011;23695;55.868;37.472;2022-12-07T10:14:54;6.35;;;3.92;;
37857;SDS011;23695;55.868;37.472;2022-12-07T10:17:39;7.55;;;4.38;;
37857;SDS011;23695;55.868;37.472;2022-12-07T10:20:23;6.43;;;4.30;;
37857;SDS011;23695;55.868;37.472;2022-12-07T10:23:04;7.07;;;4.57;;
37857;SDS011;23695;55.868;37.472;2022-12-07T10:25:39;6.13;;;3.72;;
37857;SDS011;23695;55.868;37.472;2022-12-07T10:28:10;7.47;;;4.25;;
37857;SDS011;23695;55.868;37.472;2022-12-07T10:30:52;10.70;;;4.40;;
37857;SDS011;23695;55.868;37.472;2022-12-07T10:33:54;7.63;;;4.13;;
37857;SDS011;23695;55.868;37.472;2022-12-07T10:36:19;7.35;;;4.22;;
37857;SDS011;23695;55.868;37.472;2022-12-07T10:38:49;5.88;;;4.38;;
37857;SDS011;23695;55.868;37.472;2022-12-07T10:41:31;6.28;;;3.95;;
37857;SDS011;23695;55.868;37.472;2022-12-07T10:43:58;6.05;;;4.28;;
37857;SDS011;23695;55.868;37.472;2022-12-07T10:52:56;5.63;;;3.85;;
37857;SDS011;23695;55.868;37.472;2022-12-07T10:57:57;9.53;;;4.13;;
37857;SDS011;23695;55.868;37.472;2022-12-07T11:08:39;10.00;;;4.65;;
37857;SDS011;23695;55.868;37.472;2022-12-07T11:14:18;6.57;;;4.53;;
37857;SDS011;23695;55.868;37.472;2022-12-07T11:22:15;8.27;;;4.45;;
37857;SDS011;23695;55.868;37.472;2022-12-07T11:27:34;8.90;;;5.00;;
37857;SDS011;23695;55.868;37.472;2022-12-07T11:38:16;7.60;;;4.35;;
37857;SDS011;23695;55.868;37.472;2022-12-07T11:40:54;10.00;;;4.60;;
37857;SDS011;23695;55.868;37.472;2022-12-07T11:43:28;9.45;;;5.00;;
37857;SDS011;23695;55.868;37.472;2022-12-07T11:46:12;5.72;;;4.15;;
37857;SDS011;23695;55.868;37.472;2022-12-07T11:48:46;7.10;;;4.43;;
37857;SDS011;23695;55.868;37.472;2022-12-07T11:51:18;7.47;;;4.30;;
37857;SDS011;23695;55.868;37.472;2022-12-07T11:54:03;7.65;;;4.30;;
37857;SDS011;23695;55.868;37.472;2022-12-07T11:56:38;7.05;;;3.90;;
37857;SDS011;23695;55.868;37.472;2022-12-07T12:07:59;9.35;;;4.22;;
37857;SDS011;23695;55.868;37.472;2022-12-07T12:11:15;7.05;;;4.18;;
37857;SDS011;23695;55.868;37.472;2022-12-07T12:17:10;10.52;;;4.07;;
37857;SDS011;23695;55.868;37.472;2022-12-07T12:22:39;6.88;;;4.30;;
37857;SDS011;23695;55.868;37.472;2022-12-07T12:28:30;8.40;;;4.40;;
37857;SDS011;23695;55.868;37.472;2022-12-07T12:33:50;8.43;;;4.00;;
37857;SDS011;23695;55.868;37.472;2022-12-07T12:36:20;8.70;;;5.07;;
37857;SDS011;23695;55.868;37.472;2022-12-07T12:44:38;7.30;;;4.72;;
37857;SDS011;23695;55.868;37.472;2022-12-07T12:50:17;7.22;;;4.60;;
37857;SDS011;23695;55.868;37.472;2022-12-07T13:00:46;11.03;;;5.13;;
37857;SDS011;23695;55.868;37.472;2022-12-07T13:03:47;6.55;;;4.85;;
37857;SDS011;23695;55.868;37.472;2022-12-07T13:08:51;7.55;;;4.70;;
37857;SDS011;23695;55.868;37.472;2022-12-07T13:11:28;6.80;;;4.45;;
37857;SDS011;23695;55.868;37.472;2022-12-07T13:17:03;7.78;;;5.05;;
37857;SDS011;23695;55.868;37.472;2022-12-07T13:27:39;7.00;;;5.03;;
37857;SDS011;23695;55.868;37.472;2022-12-07T13:30:17;8.07;;;5.15;;
37857;SDS011;23695;55.868;37.472;2022-12-07T13:32:57;8.35;;;5.25;;
37857;SDS011;23695;55.868;37.472;2022-12-07T13:35:28;8.18;;;4.97;;
37857;SDS011;23695;55.868;37.472;2022-12-07T13:37:59;10.38;;;5.40;;
37857;SDS011;23695;55.868;37.472;2022-12-07T13:40:30;7.95;;;5.28;;
37857;SDS011;23695;55.868;37.472;2022-12-07T13:43:01;9.45;;;5.78;;
37857;SDS011;23695;55.868;37.472;2022-12-07T13:45:31;7.07;;;5.07;;
37857;SDS011;23695;55.868;37.472;2022-12-07T13:47:59;8.30;;;5.43;;
37857;SDS011;23695;55.868;37.472;2022-12-07T13:50:28;8.27;;;5.63;;
37857;SDS011;23695;55.868;37.472;2022-12-07T13:52:59;9.40;;;5.30;;
37857;SDS011;23695;55.868;37.472;2022-12-07T13:55:27;10.57;;;6.10;;
37857;SDS011;23695;55.868;37.472;2022-12-07T13:57:55;10.82;;;5.85;;
37857;SDS011;23695;55.868;37.472;2022-12-07T14:00:23;8.73;;;5.47;;
37857;SDS011;23695;55.868;37.472;2022-12-07T14:02:58;9.98;;;5.15;;
37857;SDS011;23695;55.868;37.472;2022-12-07T14:05:46;10.00;;;5.80;;
37857;SDS011;23695;55.868;37.472;2022-12-07T14:08:29;8.93;;;5.85;;
37857;SDS011;23695;55.868;37.472;2022-12-07T14:10:57;11.23;;;5.53;;
37857;SDS011;23695;55.868;37.472;2022-12-07T14:16:14;7.40;;;5.15;;
37857;SDS011;23695;55.868;37.472;2022-12-07T14:18:51;9.68;;;5.03;;
37857;SDS011;23695;55.868;37.472;2022-12-07T14:21:19;9.32;;;5.70;;
37857;SDS011;23695;55.868;37.472;2022-12-07T14:24:02;8.45;;;5.47;;
37857;SDS011;23695;55.868;37.472;2022-12-07T14:26:46;8.02;;;5.60;;
37857;SDS011;23695;55.868;37.472;2022-12-07T14:29:32;8.45;;;5.15;;
37857;SDS011;23695;55.868;37.472;2022-12-07T14:34:53;9.38;;;5.40;;
37857;SDS011;23695;55.868;37.472;2022-12-07T14:37:24;10.70;;;6.43;;
37857;SDS011;23695;55.868;37.472;2022-12-07T14:39:54;9.95;;;6.43;;
37857;SDS011;23695;55.868;37.472;2022-12-07T14:42:22;7.25;;;5.45;;
37857;SDS011;23695;55.868;37.472;2022-12-07T14:44:53;9.25;;;5.70;;
37857;SDS011;23695;55.868;37.472;2022-12-07T14:47:20;10.75;;;5.68;;
37857;SDS011;23695;55.868;37.472;2022-12-07T14:50:07;11.15;;;6.32;;
37857;SDS011;23695;55.868;37.472;2022-12-07T14:52:35;8.50;;;6.20;;
37857;SDS011;23695;55.868;37.472;2022-12-07T14:55:29;7.63;;;5.85;;
37857;SDS011;23695;55.868;37.472;2022-12-07T14:57:57;10.95;;;6.25;;
37857;SDS011;23695;55.868;37.472;2022-12-07T15:00:25;9.52;;;5.43;;
37857;SDS011;23695;55.868;37.472;2022-12-07T15:02:53;9.05;;;5.45;;
37857;SDS011;23695;55.868;37.472;2022-12-07T15:05:20;8.82;;;5.90;;
37857;SDS011;23695;55.868;37.472;2022-12-07T15:07:48;9.05;;;5.72;;
37857;SDS011;23695;55.868;37.472;2022-12-07T15:10:22;8.23;;;6.38;;
37857;SDS011;23695;55.868;37.472;2022-12-07T15:12:50;9.55;;;5.72;;
37857;SDS011;23695;55.868;37.472;2022-12-07T15:15:17;9.27;;;6.07;;
37857;SDS011;23695;55.868;37.472;2022-12-07T15:17:44;9.70;;;5.85;;
37857;SDS011;23695;55.868;37.472;2022-12-07T15:20:12;9.38;;;5.90;;
37857;SDS011;23695;55.868;37.472;2022-12-07T15:22:40;10.55;;;5.45;;
37857;SDS011;23695;55.868;37.472;2022-12-07T15:25:08;8.35;;;5.35;;
37857;SDS011;23695;55.868;37.472;2022-12-07T15:27:38;8.75;;;5.78;;
37857;SDS011;23695;55.868;37.472;2022-12-07T15:30:05;9.48;;;6.22;;
37857;SDS011;23695;55.868;37.472;2022-12-07T15:32:33;8.55;;;4.97;;
37857;SDS011;23695;55.868;37.472;2022-12-07T15:35:00;9.82;;;5.97;;
37857;SDS011;23695;55.868;37.472;2022-12-07T15:37:28;9.48;;;5.60;;
37857;SDS011;23695;55.868;37.472;2022-12-07T15:39:57;11.50;;;5.88;;
37857;SDS011;23695;55.868;37.472;2022-12-07T15:42:32;17.25;;;5.68;;
37857;SDS011;23695;55.868;37.472;2022-12-07T15:44:59;9.75;;;5.80;;
37857;SDS011;23695;55.868;37.472;2022-12-07T15:47:26;7.60;;;5.50;;
37857;SDS011;23695;55.868;37.472;2022-12-07T15:49:53;9.88;;;5.78;;
37857;SDS011;23695;55.868;37.472;2022-12-07T15:52:22;9.13;;;5.90;;
37857;SDS011;23695;55.868;37.472;2022-12-07T15:54:49;9.68;;;6.15;;
37857;SDS011;23695;55.868;37.472;2022-12-07T15:57:16;10.82;;;5.65;;
37857;SDS011;23695;55.868;37.472;2022-12-07T15:59:50;15.05;;;5.75;;
37857;SDS011;23695;55.868;37.472;2022-12-07T16:02:17;8.48;;;5.72;;
37857;SDS011;23695;55.868;37.472;2022-12-07T16:04:44;9.95;;;6.30;;
37857;SDS011;23695;55.868;37.472;2022-12-07T16:07:10;9.40;;;5.28;;
37857;SDS011;23695;55.868;37.472;2022-12-07T16:09:38;8.63;;;6.25;;
37857;SDS011;23695;55.868;37.472;2022-12-07T16:12:04;8.50;;;5.93;;
37857;SDS011;23695;55.868;37.472;2022-12-07T16:14:32;11.55;;;6.88;;
37857;SDS011;23695;55.868;37.472;2022-12-07T16:16:59;10.27;;;6.20;;
37857;SDS011;23695;55.868;37.472;2022-12-07T16:19:26;7.95;;;5.80;;
37857;SDS011;23695;55.868;37.472;2022-12-07T16:21:53;10.15;;;5.85;;
37857;SDS011;23695;55.868;37.472;2022-12-07T16:24:20;9.98;;;5.80;;
37857;SDS011;23695;55.868;37.472;2022-12-07T16:26:47;15.40;;;7.05;;
37857;SDS011;23695;55.868;37.472;2022-12-07T16:29:16;12.52;;;6.18;;
37857;SDS011;23695;55.868;37.472;2022-12-07T16:31:47;10.30;;;5.80;;
37857;SDS011;23695;55.868;37.472;2022-12-07T16:34:15;10.93;;;5.57;;
37857;SDS011;23695;55.868;37.472;2022-12-07T16:36:42;12.55;;;5.80;;
37857;SDS011;23695;55.868;37.472;2022-12-07T16:39:29;9.95;;;6.30;;
37857;SDS011;23695;55.868;37.472;2022-12-07T16:41:56;11.57;;;6.63;;
37857;SDS011;23695;55.868;37.472;2022-12-07T16:44:23;12.80;;;7.25;;
37857;SDS011;23695;55.868;37.472;2022-12-07T16:46:49;11.27;;;5.55;;
37857;SDS011;23695;55.868;37.472;2022-12-07T16:49:16;11.02;;;5.47;;
37857;SDS011;23695;55.868;37.472;2022-12-07T16:51:43;11.77;;;6.25;;
37857;SDS011;23695;55.868;37.472;2022-12-07T16:54:11;9.18;;;5.68;;
37857;SDS011;23695;55.868;37.472;2022-12-07T16:56:38;9.73;;;5.60;;
37857;SDS011;23695;55.868;37.472;2022-12-07T16:59:06;13.27;;;5.97;;
37857;SDS011;23695;55.868;37.472;2022-12-07T17:01:32;17.73;;;5.53;;
37857;SDS011;23695;55.868;37.472;2022-12-07T17:04:00;9.70;;;5.63;;
37857;SDS011;23695;55.868;37.472;2022-12-07T17:06:27;12.32;;;5.72;;
37857;SDS011;23695;55.868;37.472;2022-12-07T17:08:55;11.52;;;6.65;;
37857;SDS011;23695;55.868;37.472;2022-12-07T17:11:24;10.10;;;5.78;;
37857;SDS011;23695;55.868;37.472;2022-12-07T17:13:55;8.98;;;5.68;;
37857;SDS011;23695;55.868;37.472;2022-12-07T17:16:22;9.88;;;5.47;;
37857;SDS011;23695;55.868;37.472;2022-12-07T17:18:49;8.55;;;5.78;;
37857;SDS011;23695;55.868;37.472;2022-12-07T17:21:16;10.07;;;6.00;;
37857;SDS011;23695;55.868;37.472;2022-12-07T17:23:43;12.75;;;5.55;;